createdAt,value
2022-12-11T00:04:27.792Z,-0.19
2022-12-11T00:09:29.773Z,-0.22
2022-12-11T00:14:32.006Z,-0.21
2022-12-11T00:19:34.157Z,-0.19
2022-12-11T00:24:37.919Z,-0.18
2022-12-11T00:29:39.618Z,-0.18
2022-12-11T00:34:41.364Z,-0.15
2022-12-11T00:39:43.152Z,-0.17
2022-12-11T00:44:44.955Z,-0.16
2022-12-11T00:49:50.128Z,-0.14
2022-12-11T00:54:52.040Z,-0.16
2022-12-11T00:59:55.794Z,-0.14
2022-12-11T01:05:01.994Z,-0.16
2022-12-11T01:10:23.599Z,-0.19
2022-12-11T01:15:30.195Z,-0.17
2022-12-11T01:20:32.433Z,-0.18
2022-12-11T01:25:35.955Z,-0.22
2022-12-11T01:30:41.868Z,-0.22
2022-12-11T01:35:45.806Z,-0.22
2022-12-11T01:40:54.479Z,-0.24
2022-12-11T01:45:58.811Z,-0.22
2022-12-11T01:51:03.368Z,-0.23
2022-12-11T01:56:08.815Z,-0.26
2022-12-11T02:01:17.249Z,-0.28
2022-12-11T02:06:42.067Z,-0.27
2022-12-11T02:11:58.279Z,-0.29
2022-12-11T02:17:06.720Z,-0.29
2022-12-11T02:22:12.119Z,-0.28
2022-12-11T02:27:21.740Z,-0.33
2022-12-11T02:32:32.222Z,-0.36
2022-12-11T02:37:38.291Z,-0.38
2022-12-11T02:42:44.454Z,-0.39
2022-12-11T02:47:48.563Z,-0.43
2022-12-11T02:52:52.468Z,-0.41
2022-12-11T02:58:05.817Z,-0.40
2022-12-11T03:03:09.681Z,-0.40
2022-12-11T03:08:11.545Z,-0.46
2022-12-11T03:13:19.561Z,-0.51
2022-12-11T03:18:49.580Z,-0.56
2022-12-11T03:24:04.884Z,-0.54
2022-12-11T03:29:16.632Z,-0.54
2022-12-11T03:34:22.673Z,-0.56
2022-12-11T03:39:32.315Z,-0.60
2022-12-11T03:44:47.314Z,-0.62
2022-12-11T03:49:50.511Z,-0.64
2022-12-11T03:54:58.234Z,-0.65
2022-12-11T04:00:01.022Z,-0.67
2022-12-11T04:05:13.640Z,-0.64
2022-12-11T04:10:17.658Z,-0.64
2022-12-11T04:15:32.622Z,-0.69
2022-12-11T04:20:54.642Z,-0.74
2022-12-11T04:26:13.799Z,-0.77
2022-12-11T04:31:18.510Z,-0.76
2022-12-11T04:36:25.533Z,-0.76
2022-12-11T04:41:32.005Z,-0.83
2022-12-11T04:46:34.280Z,-0.84
2022-12-11T04:51:40.561Z,-0.90
2022-12-11T04:56:42.508Z,-0.87
2022-12-11T05:01:46.872Z,-0.92
2022-12-11T05:06:52.614Z,-0.96
2022-12-11T05:11:57.449Z,-1.08
2022-12-11T05:17:01.531Z,-1.13
2022-12-11T05:22:05.516Z,-1.16
2022-12-11T05:27:07.251Z,-1.19
2022-12-11T05:32:08.933Z,-1.26
2022-12-11T05:37:10.669Z,-1.32
2022-12-11T05:42:14.733Z,-1.33
2022-12-11T05:47:20.365Z,-1.38
2022-12-11T05:52:25.573Z,-1.39
2022-12-11T05:57:27.236Z,-1.34
2022-12-11T06:02:33.587Z,-1.35
2022-12-11T06:07:36.432Z,-1.43
2022-12-11T06:12:38.152Z,-1.46
2022-12-11T06:17:39.821Z,-1.45
2022-12-11T06:22:46.006Z,-1.45
2022-12-11T06:27:47.830Z,-1.43
2022-12-11T06:32:51.952Z,-1.41
2022-12-11T06:38:16.760Z,-1.40
2022-12-11T06:43:24.013Z,-1.42
2022-12-11T06:48:39.012Z,-1.45
2022-12-11T06:53:41.556Z,-1.51
2022-12-11T06:58:44.103Z,-1.50
2022-12-11T07:03:46.156Z,-1.48
2022-12-11T07:08:50.346Z,-1.49
2022-12-11T07:13:56.676Z,-1.53
2022-12-11T07:19:00.770Z,-1.54
2022-12-11T07:24:02.850Z,-1.52
2022-12-11T07:29:04.565Z,-1.47
2022-12-11T07:34:11.270Z,-1.51
2022-12-11T07:39:13.284Z,-1.45
2022-12-11T07:44:15.641Z,-1.39
2022-12-11T07:49:20.435Z,-1.38
2022-12-11T07:54:24.643Z,-1.40
2022-12-11T07:59:31.283Z,-1.42
2022-12-11T08:04:38.657Z,-1.43
2022-12-11T08:09:45.509Z,-1.33
2022-12-11T08:14:50.242Z,-1.31
2022-12-11T08:19:52.616Z,-1.30
2022-12-11T08:24:54.534Z,-1.34
2022-12-11T08:29:59.888Z,-1.36
2022-12-11T08:35:04.499Z,-1.06
2022-12-11T08:40:11.106Z,-1.14
2022-12-11T08:45:16.446Z,-1.18
2022-12-11T08:50:18.632Z,-1.17
2022-12-11T08:55:22.007Z,-1.09
2022-12-11T09:00:24.502Z,-1.10
2022-12-11T09:05:28.876Z,-1.11
2022-12-11T09:10:33.137Z,-1.07
2022-12-11T09:15:40.531Z,-1.04
2022-12-11T09:20:44.731Z,-1.02
2022-12-11T09:25:48.080Z,-0.97
2022-12-11T09:30:50.491Z,-0.91
2022-12-11T09:36:02.957Z,-0.88
2022-12-11T09:41:36.762Z,-0.89
2022-12-11T09:46:39.783Z,-0.90
2022-12-11T09:51:50.782Z,-0.86
2022-12-11T09:57:02.903Z,-0.60
2022-12-11T10:02:23.308Z,-0.56
2022-12-11T10:07:38.786Z,-0.56
2022-12-11T10:13:11.233Z,-0.60
2022-12-11T10:18:17.216Z,-0.59
2022-12-11T10:23:25.072Z,-0.64
2022-12-11T10:28:30.172Z,-0.63
2022-12-11T10:34:01.586Z,-0.63
2022-12-11T10:39:19.802Z,-0.66
2022-12-11T10:44:31.271Z,-0.65
2022-12-11T10:49:35.187Z,-0.72
2022-12-11T10:54:42.758Z,-0.74
2022-12-11T10:59:49.813Z,-0.79
2022-12-11T11:04:52.056Z,-0.74
2022-12-11T11:10:11.107Z,-0.79
2022-12-11T11:15:14.500Z,-0.80
2022-12-11T11:20:29.609Z,-0.68
2022-12-11T11:25:35.383Z,-0.63
2022-12-11T11:30:41.577Z,-0.59
2022-12-11T11:35:57.536Z,-0.58
2022-12-11T11:41:21.592Z,-0.64
2022-12-11T11:46:28.226Z,-0.71
2022-12-11T11:52:11.911Z,-0.77
2022-12-11T11:57:51.033Z,-0.74
2022-12-11T12:03:21.183Z,-0.70
2022-12-11T12:08:44.191Z,-0.68
2022-12-11T12:13:53.650Z,-0.68
2022-12-11T12:19:16.403Z,-0.71
2022-12-11T12:24:18.143Z,-0.69
2022-12-11T12:29:53.857Z,-0.69
2022-12-11T12:35:05.297Z,-0.66
2022-12-11T12:40:35.122Z,-0.72
2022-12-11T12:45:56.103Z,-0.71
2022-12-11T12:51:02.030Z,-0.73
2022-12-11T12:56:06.572Z,-0.75
2022-12-11T13:01:12.367Z,-0.75
2022-12-11T13:06:17.186Z,-0.76
2022-12-11T13:11:21.601Z,-0.78
2022-12-11T13:16:53.282Z,-0.79
2022-12-11T13:22:14.834Z,-0.84
2022-12-11T13:27:27.245Z,-0.84
2022-12-11T13:32:34.100Z,-0.88
2022-12-11T13:37:41.749Z,-0.89
2022-12-11T13:42:53.728Z,-0.87
2022-12-11T13:48:02.415Z,-0.88
2022-12-11T13:53:07.587Z,-0.83
2022-12-11T13:58:20.693Z,-0.78
2022-12-11T14:03:25.252Z,-0.52
2022-12-11T14:08:37.432Z,-0.70
2022-12-11T14:13:44.310Z,-0.77
2022-12-11T14:18:52.549Z,-0.80
2022-12-11T14:23:58.949Z,-0.84
2022-12-11T14:29:01.604Z,-0.88
2022-12-11T14:34:16.438Z,-0.90
2022-12-11T14:39:38.196Z,-0.88
2022-12-11T14:45:07.356Z,-0.83
2022-12-11T14:50:22.225Z,-0.80
2022-12-11T14:55:31.112Z,-0.79
2022-12-11T15:00:39.920Z,-0.76
2022-12-11T15:05:54.300Z,-0.73
2022-12-11T15:11:14.475Z,-0.74
2022-12-11T15:16:19.146Z,-0.74
2022-12-11T15:21:31.706Z,-0.78
2022-12-11T15:26:33.507Z,-0.81
2022-12-11T15:31:37.913Z,-0.84
2022-12-11T15:36:42.227Z,-0.83
2022-12-11T15:41:48.839Z,-0.84
2022-12-11T15:46:51.092Z,-0.84
2022-12-11T15:51:54.603Z,-0.74
2022-12-11T15:56:57.897Z,-0.73
2022-12-11T16:02:00.290Z,-0.73
2022-12-11T16:07:04.715Z,-0.73
2022-12-11T16:12:10.917Z,-0.71
2022-12-11T16:17:19.666Z,-0.71
2022-12-11T16:22:25.664Z,-0.71
2022-12-11T16:27:27.599Z,-0.70
2022-12-11T16:32:29.683Z,-0.46
2022-12-11T16:37:36.179Z,-0.53
2022-12-11T16:42:39.251Z,-0.58
2022-12-11T16:47:41.418Z,-0.59
2022-12-11T16:52:44.311Z,-0.61
2022-12-11T16:57:47.144Z,-0.62
2022-12-11T17:02:49.153Z,-0.63
2022-12-11T17:07:50.932Z,-0.63
2022-12-11T17:12:55.197Z,-0.64
2022-12-11T17:17:59.360Z,-0.64
2022-12-11T17:23:01.456Z,-0.52
2022-12-11T17:28:06.511Z,-0.56
2022-12-11T17:33:08.973Z,-0.60
2022-12-11T17:38:11.252Z,-0.61
2022-12-11T17:43:16.053Z,-0.63
2022-12-11T17:48:19.796Z,-0.66
2022-12-11T17:53:23.741Z,-0.66
2022-12-11T17:58:25.580Z,-0.68
2022-12-11T18:03:28.376Z,-0.68
2022-12-11T18:08:30.292Z,-0.67
2022-12-11T18:13:38.684Z,-0.64
2022-12-11T18:18:41.149Z,-0.62
2022-12-11T18:23:43.464Z,-0.59
2022-12-11T18:28:47.112Z,-0.30
2022-12-11T18:33:51.462Z,-0.39
2022-12-11T18:38:55.855Z,-0.44
2022-12-11T18:44:04.015Z,-0.48
2022-12-11T18:49:12.884Z,-0.52
2022-12-11T18:54:20.777Z,-0.52
2022-12-11T18:59:26.760Z,-0.52
2022-12-11T19:04:31.912Z,-0.54
2022-12-11T19:09:38.847Z,-0.54
2022-12-11T19:14:44.895Z,-0.55
2022-12-11T19:19:47.536Z,-0.57
2022-12-11T19:24:49.679Z,-0.57
2022-12-11T19:29:51.835Z,-0.62
2022-12-11T19:34:54.545Z,-0.63
2022-12-11T19:39:56.454Z,-0.65
2022-12-11T19:44:59.621Z,-0.70
2022-12-11T19:50:02.017Z,-0.74
2022-12-11T19:55:08.200Z,-0.80
2022-12-11T20:00:10.869Z,-0.86
2022-12-11T20:05:20.194Z,-0.91
2022-12-11T20:10:24.552Z,-1.00
2022-12-11T20:15:27.634Z,-1.08
2022-12-11T20:20:29.949Z,-1.15
2022-12-11T20:25:32.442Z,-1.20
2022-12-11T20:30:37.430Z,-1.29
2022-12-11T20:35:40.674Z,-1.42
2022-12-11T20:40:46.528Z,-1.52
2022-12-11T20:45:49.710Z,-1.58
2022-12-11T20:50:58.245Z,-1.68
2022-12-11T20:56:02.391Z,-1.87
2022-12-11T21:01:04.790Z,-2.06
2022-12-11T21:06:09.214Z,-1.78
2022-12-11T21:11:11.057Z,-2.24
2022-12-11T21:16:18.133Z,-2.54
2022-12-11T21:21:19.934Z,-2.76
2022-12-11T21:26:23.244Z,-2.94
2022-12-11T21:31:25.569Z,-3.05
2022-12-11T21:36:33.875Z,-2.81
2022-12-11T21:41:35.886Z,-2.61
2022-12-11T21:46:42.843Z,-2.43
2022-12-11T21:51:47.511Z,-2.26
2022-12-11T21:56:49.549Z,-2.29
2022-12-11T22:01:54.081Z,-2.32
2022-12-11T22:06:56.025Z,-2.28
2022-12-11T22:12:00.179Z,-2.29
2022-12-11T22:17:02.025Z,-2.19
2022-12-11T22:22:05.592Z,-2.09
2022-12-11T22:27:07.521Z,-2.01
2022-12-11T22:32:11.747Z,-1.95
2022-12-11T22:37:16.809Z,-1.90
2022-12-11T22:42:20.661Z,-1.88
2022-12-11T22:47:23.555Z,-1.89
2022-12-11T22:52:27.796Z,-1.96
2022-12-11T22:57:31.961Z,-2.13
2022-12-11T23:02:39.340Z,-2.35
2022-12-11T23:07:41.491Z,-2.47
2022-12-11T23:12:44.343Z,-2.56
2022-12-11T23:17:51.529Z,-2.61
2022-12-11T23:22:56.332Z,-2.73
2022-12-11T23:28:05.089Z,-2.79
2022-12-11T23:33:11.143Z,-2.95
2022-12-11T23:38:13.277Z,-2.97
2022-12-11T23:43:15.233Z,-3.00
2022-12-11T23:48:17.225Z,-2.95
2022-12-11T23:53:21.556Z,-2.84
2022-12-11T23:58:23.323Z,-2.86
